Webcam Flughafen St.Gallen-Altenrhein

Live-Bilder und Zeitraffer LSZR / ACH.

 

Live aus Altenrhein
LIVE
LSZR 222350Z AUTO VRB01KT 8000 NCD 05/04 Q1030
Zeitraffer heute
2018-10-23 00:14:04
LSZR 222150Z AUTO 13003KT 9999 NSC 08/06 Q1030
Zeitraffer gestern
2018-10-22 00:13:56
LSZR 212150Z AUTO 21003KT CAVOK 07/06 Q1025
Zeitraffer vor 3 Tagen
2018-10-20 00:14:43
LSZR 192150Z AUTO VRB02KT 2600 BR OVC018 12/11 Q1024